createdAt,value
2017-11-19T00:00:54.983Z,97607.55
2017-11-19T00:01:57.656Z,97607.71
2017-11-19T00:03:00.269Z,97600.20
2017-11-19T00:04:02.908Z,97599.23
2017-11-19T00:05:05.557Z,97596.06
2017-11-19T00:06:08.161Z,97597.95
2017-11-19T00:07:10.768Z,97597.06
2017-11-19T00:08:13.408Z,97601.20
2017-11-19T00:09:16.053Z,97603.09
2017-11-19T00:10:18.749Z,97607.55
2017-11-19T00:11:21.665Z,97607.71
2017-11-19T00:12:24.320Z,97600.68
2017-11-19T00:13:26.972Z,97603.58
2017-11-19T00:14:29.605Z,97605.34
2017-11-19T00:15:32.230Z,97609.80
2017-11-19T00:16:34.881Z,97604.33
2017-11-19T00:17:37.900Z,97605.50
2017-11-19T00:18:40.551Z,97603.90
2017-11-19T00:19:43.199Z,97594.77
2017-11-19T00:20:45.865Z,97589.46
2017-11-19T00:21:48.509Z,97585.97
2017-11-19T00:22:51.208Z,97593.08
2017-11-19T00:23:54.151Z,97595.65
2017-11-19T00:24:57.729Z,97593.16
2017-11-19T00:26:00.968Z,97592.72
2017-11-19T00:27:03.600Z,97583.47
2017-11-19T00:28:06.253Z,97588.87
2017-11-19T00:29:08.886Z,97587.49
2017-11-19T00:30:11.786Z,97583.80
2017-11-19T00:31:14.437Z,97586.05
2017-11-19T00:32:17.083Z,97585.45
2017-11-19T00:33:19.707Z,97587.53
2017-11-19T00:34:22.440Z,97586.73
2017-11-19T00:35:25.129Z,97587.86
2017-11-19T00:36:28.077Z,97582.79
2017-11-19T00:37:30.767Z,97578.13
2017-11-19T00:38:33.372Z,97587.41
2017-11-19T00:39:36.015Z,97589.86
2017-11-19T00:40:38.673Z,97578.77
2017-11-19T00:41:41.300Z,97581.02
2017-11-19T00:42:44.226Z,97569.12
2017-11-19T00:43:46.840Z,97571.89
2017-11-19T00:44:49.514Z,97570.69
2017-11-19T00:45:52.146Z,97567.09
2017-11-19T00:46:55.498Z,97561.63
2017-11-19T00:47:58.162Z,97567.45
2017-11-19T00:49:01.342Z,97566.45
2017-11-19T00:50:04.069Z,97570.19
2017-11-19T00:51:06.840Z,97568.90
2017-11-19T00:52:09.476Z,97568.13
2017-11-19T00:53:12.163Z,97569.30
2017-11-19T00:54:14.782Z,97561.09
2017-11-19T00:55:17.725Z,97558.94
2017-11-19T00:56:20.371Z,97556.28
2017-11-19T00:57:23.020Z,97558.86
2017-11-19T00:58:25.635Z,97558.94
2017-11-19T00:59:28.262Z,97557.45
2017-11-19T01:00:30.918Z,97548.16
2017-11-19T01:01:33.867Z,97548.45
2017-11-19T01:02:36.483Z,97545.06
2017-11-19T01:03:40.098Z,97549.08
2017-11-19T01:04:42.780Z,97550.52
2017-11-19T01:05:45.502Z,97553.17
2017-11-19T01:06:48.155Z,97554.97
2017-11-19T01:07:51.127Z,97555.53
2017-11-19T01:08:53.765Z,97557.78
2017-11-19T01:09:56.406Z,97558.91
2017-11-19T01:10:59.103Z,97557.91
2017-11-19T01:12:01.782Z,97557.91
2017-11-19T01:13:04.454Z,97562.30
2017-11-19T01:14:07.508Z,97562.70
2017-11-19T01:15:10.171Z,97554.44
2017-11-19T01:16:12.744Z,97550.27
2017-11-19T01:17:15.418Z,97546.46
2017-11-19T01:18:18.041Z,97539.65
2017-11-19T01:19:20.686Z,97546.83
2017-11-19T01:20:23.681Z,97547.61
2017-11-19T01:21:26.322Z,97546.38
2017-11-19T01:22:28.967Z,97544.28
2017-11-19T01:23:31.647Z,97535.02
2017-11-19T01:24:34.397Z,97538.19
2017-11-19T01:25:37.024Z,97539.39
2017-11-19T01:26:39.957Z,97536.02
2017-11-19T01:27:42.529Z,97540.67
2017-11-19T01:28:45.101Z,97540.35
2017-11-19T01:29:47.728Z,97538.78
2017-11-19T01:30:50.317Z,97540.48
2017-11-19T01:31:52.940Z,97540.31
2017-11-19T01:32:55.557Z,97533.87
2017-11-19T01:33:58.183Z,97539.01
2017-11-19T01:35:00.815Z,97537.72
2017-11-19T01:36:03.397Z,97534.77
2017-11-19T01:37:05.973Z,97535.23
2017-11-19T01:38:08.958Z,97531.48
2017-11-19T01:39:11.598Z,97537.10
2017-11-19T01:40:14.242Z,97540.71
2017-11-19T01:41:16.881Z,97542.45
2017-11-19T01:42:19.510Z,97544.91
2017-11-19T01:43:22.168Z,97545.48
2017-11-19T01:44:25.122Z,97548.63
2017-11-19T01:45:27.790Z,97553.95
2017-11-19T01:46:30.461Z,97546.73
2017-11-19T01:47:33.114Z,97548.50
2017-11-19T01:48:35.783Z,97537.34
2017-11-19T01:49:38.920Z,97555.81
2017-11-19T01:50:41.879Z,97552.64
2017-11-19T01:51:44.497Z,97551.55
2017-11-19T01:52:47.194Z,97547.27
2017-11-19T01:53:49.852Z,97547.88
2017-11-19T01:54:52.494Z,97537.52
2017-11-19T01:55:55.142Z,97548.11
2017-11-19T01:56:58.063Z,97550.73
2017-11-19T01:58:00.708Z,97550.36
2017-11-19T01:59:03.324Z,97548.59
2017-11-19T02:00:05.969Z,97560.64
2017-11-19T02:01:08.608Z,97566.55
2017-11-19T02:02:11.256Z,97568.75
2017-11-19T02:03:14.163Z,97574.58
2017-11-19T02:04:16.817Z,97561.05
2017-11-19T02:05:19.445Z,97562.93
2017-11-19T02:06:22.115Z,97557.91
2017-11-19T02:07:24.747Z,97555.54
2017-11-19T02:08:27.347Z,97545.18
2017-11-19T02:09:30.366Z,97544.09
2017-11-19T02:10:33.065Z,97554.89
2017-11-19T02:11:36.744Z,97558.15
2017-11-19T02:12:39.456Z,97557.23
2017-11-19T02:13:42.349Z,97556.27
2017-11-19T02:14:44.990Z,97558.95
2017-11-19T02:15:48.128Z,97561.68
2017-11-19T02:16:50.779Z,97564.53
2017-11-19T02:17:53.445Z,97564.93
2017-11-19T02:18:56.138Z,97571.92
2017-11-19T02:19:58.759Z,97567.27
2017-11-19T02:21:01.429Z,97573.89
2017-11-19T02:22:04.381Z,97563.81
2017-11-19T02:23:07.067Z,97572.03
2017-11-19T02:24:09.729Z,97566.50
2017-11-19T02:25:12.400Z,97567.30
2017-11-19T02:26:15.215Z,97562.56
2017-11-19T02:27:17.933Z,97574.41
2017-11-19T02:28:20.566Z,97576.58
2017-11-19T02:29:23.179Z,97559.88
2017-11-19T02:30:25.800Z,97571.48
2017-11-19T02:31:28.467Z,97573.39
2017-11-19T02:32:31.136Z,97574.20
2017-11-19T02:33:34.054Z,97568.41
2017-11-19T02:34:36.699Z,97578.48
2017-11-19T02:35:39.357Z,97581.05
2017-11-19T02:36:42.016Z,97582.42
2017-11-19T02:37:44.682Z,97583.30
2017-11-19T02:38:47.328Z,97572.75
2017-11-19T02:39:49.948Z,97581.31
2017-11-19T02:40:52.611Z,97576.17
2017-11-19T02:41:55.279Z,97576.17
2017-11-19T02:42:57.920Z,97568.64
2017-11-19T02:44:00.552Z,97572.38
2017-11-19T02:45:03.501Z,97570.05
2017-11-19T02:46:06.140Z,97576.89
2017-11-19T02:47:08.825Z,97567.42
2017-11-19T02:48:11.455Z,97566.50
2017-11-19T02:49:14.129Z,97567.98
2017-11-19T02:50:16.753Z,97565.00
2017-11-19T02:51:19.640Z,97571.41
2017-11-19T02:52:22.277Z,97556.39
2017-11-19T02:53:24.923Z,97559.86
2017-11-19T02:54:27.581Z,97560.55
2017-11-19T02:55:30.226Z,97557.05
2017-11-19T02:56:32.899Z,97560.19
2017-11-19T02:57:35.833Z,97558.64
2017-11-19T02:58:38.470Z,97567.11
2017-11-19T02:59:41.112Z,97562.12
2017-11-19T03:00:43.737Z,97560.61
2017-11-19T03:01:46.421Z,97557.34
2017-11-19T03:02:49.043Z,97561.28
2017-11-19T03:03:51.976Z,97555.66
2017-11-19T03:04:54.638Z,97556.17
2017-11-19T03:05:57.307Z,97558.03
2017-11-19T03:06:59.920Z,97554.15
2017-11-19T03:08:02.567Z,97554.95
2017-11-19T03:09:05.121Z,97552.06
2017-11-19T03:10:08.045Z,97556.60
2017-11-19T03:11:10.701Z,97562.33
2017-11-19T03:12:13.296Z,97554.95
2017-11-19T03:13:15.878Z,97563.62
2017-11-19T03:14:19.255Z,97558.39
2017-11-19T03:15:21.888Z,97560.36
2017-11-19T03:16:24.869Z,97563.33
2017-11-19T03:17:27.511Z,97570.86
2017-11-19T03:18:30.158Z,97572.83
2017-11-19T03:19:32.790Z,97570.45
2017-11-19T03:20:35.425Z,97575.59
2017-11-19T03:21:38.042Z,97569.17
2017-11-19T03:22:40.985Z,97571.66
2017-11-19T03:23:43.644Z,97567.00
2017-11-19T03:24:46.288Z,97567.12
2017-11-19T03:25:48.885Z,97566.91
2017-11-19T03:26:51.527Z,97559.16
2017-11-19T03:27:55.138Z,97570.90
2017-11-19T03:28:57.997Z,97576.31
2017-11-19T03:30:00.587Z,97573.38
2017-11-19T03:31:03.256Z,97572.52
2017-11-19T03:32:05.891Z,97574.08
2017-11-19T03:33:08.535Z,97576.86
2017-11-19T03:34:11.147Z,97579.73
2017-11-19T03:35:14.065Z,97570.08
2017-11-19T03:36:16.687Z,97573.63
2017-11-19T03:37:19.319Z,97578.27
2017-11-19T03:38:22.017Z,97575.73
2017-11-19T03:39:24.679Z,97569.42
2017-11-19T03:40:27.448Z,97575.83
2017-11-19T03:41:30.368Z,97572.09
2017-11-19T03:42:32.954Z,97574.25
2017-11-19T03:43:35.596Z,97573.58
2017-11-19T03:44:38.294Z,97567.64
2017-11-19T03:45:40.999Z,97573.97
2017-11-19T03:46:43.623Z,97577.13
2017-11-19T03:47:46.543Z,97576.53
2017-11-19T03:48:49.196Z,97573.56
2017-11-19T03:49:51.822Z,97571.30
2017-11-19T03:50:54.509Z,97576.36
2017-11-19T03:51:57.150Z,97578.42
2017-11-19T03:52:59.855Z,97577.13
2017-11-19T03:54:03.756Z,97574.84
2017-11-19T03:55:06.399Z,97571.59
2017-11-19T03:56:09.030Z,97573.70
2017-11-19T03:57:11.609Z,97569.64
2017-11-19T03:58:14.197Z,97572.23
2017-11-19T03:59:16.784Z,97572.91
2017-11-19T04:00:19.681Z,97572.71
2017-11-19T04:01:22.251Z,97577.94
2017-11-19T04:02:24.890Z,97582.20
2017-11-19T04:03:27.464Z,97583.20
2017-11-19T04:04:30.077Z,97575.31
2017-11-19T04:05:32.718Z,97575.99
2017-11-19T04:06:35.732Z,97578.95
2017-11-19T04:07:38.381Z,97576.89
2017-11-19T04:08:41.055Z,97577.48
2017-11-19T04:09:43.726Z,97574.41
2017-11-19T04:10:46.370Z,97575.01
2017-11-19T04:11:48.994Z,97576.97
2017-11-19T04:12:51.886Z,97576.67
2017-11-19T04:13:54.535Z,97574.63
2017-11-19T04:14:57.164Z,97576.20
2017-11-19T04:15:59.836Z,97582.98
2017-11-19T04:17:02.484Z,97584.05
2017-11-19T04:18:05.166Z,97577.41
2017-11-19T04:19:08.086Z,97583.55
2017-11-19T04:20:11.014Z,97582.82
2017-11-19T04:21:13.692Z,97585.09
2017-11-19T04:22:16.368Z,97582.11
2017-11-19T04:23:19.020Z,97584.08
2017-11-19T04:24:21.690Z,97589.38
2017-11-19T04:25:24.616Z,97593.84
2017-11-19T04:26:27.252Z,97592.66
2017-11-19T04:27:29.934Z,97594.63
2017-11-19T04:28:32.574Z,97598.36
2017-11-19T04:29:35.222Z,97592.44
2017-11-19T04:30:37.845Z,97591.75
2017-11-19T04:31:40.779Z,97592.66
2017-11-19T04:32:43.454Z,97593.76
2017-11-19T04:33:46.131Z,97599.58
2017-11-19T04:34:48.767Z,97591.17
2017-11-19T04:35:51.417Z,97593.75
2017-11-19T04:36:54.046Z,97594.25
2017-11-19T04:37:56.981Z,97594.65
2017-11-19T04:38:59.662Z,97593.88
2017-11-19T04:40:02.283Z,97592.19
2017-11-19T04:41:04.903Z,97593.76
2017-11-19T04:42:07.558Z,97593.16
2017-11-19T04:43:10.199Z,97601.74
2017-11-19T04:44:13.192Z,97600.66
2017-11-19T04:45:15.836Z,97599.98
2017-11-19T04:46:18.480Z,97601.16
2017-11-19T04:47:21.102Z,97608.02
2017-11-19T04:48:23.794Z,97608.12
2017-11-19T04:49:26.464Z,97615.09
2017-11-19T04:50:29.386Z,97618.03
2017-11-19T04:51:31.968Z,97613.58
2017-11-19T04:52:34.584Z,97618.44
2017-11-19T04:53:37.223Z,97614.47
2017-11-19T04:54:39.840Z,97615.95
2017-11-19T04:55:42.525Z,97617.92
2017-11-19T04:56:45.443Z,97619.20
2017-11-19T04:57:48.123Z,97627.59
2017-11-19T04:58:50.785Z,97622.37
2017-11-19T04:59:53.448Z,97621.00
2017-11-19T05:15:17.040Z,97619.52
2017-11-19T05:16:19.608Z,97623.74
2017-11-19T05:17:23.279Z,97620.77
2017-11-19T05:18:25.791Z,97611.69
2017-11-19T05:19:28.401Z,97618.78
2017-11-19T05:20:31.174Z,97616.11
2017-11-19T05:21:33.762Z,97611.77
2017-11-19T05:22:36.339Z,97613.34
2017-11-19T05:23:39.117Z,97612.38
2017-11-19T05:24:41.630Z,97621.63
2017-11-19T05:25:44.269Z,97619.26
2017-11-19T05:26:47.149Z,97625.67
2017-11-19T05:27:49.763Z,97624.16
2017-11-19T05:28:52.346Z,97626.42
2017-11-19T05:29:54.850Z,97621.78
2017-11-19T05:30:57.341Z,97635.11
2017-11-19T05:31:59.839Z,97614.93
2017-11-19T05:33:02.692Z,97618.07
2017-11-19T05:34:05.211Z,97620.61
2017-11-19T05:35:07.718Z,97620.44
2017-11-19T05:36:10.349Z,97629.31
2017-11-19T05:37:12.973Z,97626.66
2017-11-19T05:38:15.540Z,97628.55
2017-11-19T05:39:18.396Z,97630.72
2017-11-19T05:40:20.990Z,97627.15
2017-11-19T05:41:23.571Z,97627.55
2017-11-19T05:42:26.130Z,97623.58
2017-11-19T05:43:28.702Z,97623.78
2017-11-19T05:44:31.278Z,97626.52
2017-11-19T05:45:34.149Z,97625.64
2017-11-19T05:46:36.743Z,97626.52
2017-11-19T05:47:39.385Z,97635.00
2017-11-19T05:48:41.969Z,97636.88
2017-11-19T05:49:44.535Z,97640.53
2017-11-19T05:50:47.118Z,97640.81
2017-11-19T05:51:49.952Z,97642.70
2017-11-19T05:52:52.596Z,97638.34
2017-11-19T05:53:55.209Z,97642.59
2017-11-19T05:54:57.871Z,97644.13
2017-11-19T05:56:00.508Z,97645.11
2017-11-19T05:57:03.202Z,97635.80
2017-11-19T05:58:06.130Z,97639.85
2017-11-19T05:59:08.786Z,97640.16
2017-11-19T06:00:11.504Z,97642.85
2017-11-19T06:01:14.139Z,97635.14
2017-11-19T06:02:16.780Z,97641.65
2017-11-19T06:03:19.513Z,97643.13
2017-11-19T06:04:22.466Z,97644.30
2017-11-19T06:05:25.141Z,97643.22
2017-11-19T06:06:27.793Z,97643.63
2017-11-19T06:07:30.434Z,97633.94
2017-11-19T06:08:33.080Z,97646.02
2017-11-19T06:09:35.794Z,97643.42
2017-11-19T06:10:38.741Z,97642.62
2017-11-19T06:11:41.374Z,97637.87
2017-11-19T06:12:44.032Z,97637.20
2017-11-19T06:13:46.719Z,97642.62
2017-11-19T06:14:49.377Z,97643.02
2017-11-19T06:15:52.048Z,97641.13
2017-11-19T06:16:55.000Z,97645.22
2017-11-19T06:17:57.649Z,97649.64
2017-11-19T06:19:00.296Z,97649.33
2017-11-19T06:20:02.959Z,97648.64
2017-11-19T06:21:05.614Z,97651.30
2017-11-19T06:22:08.299Z,97651.30
2017-11-19T06:23:11.211Z,97647.76
2017-11-19T06:24:13.919Z,97651.98
2017-11-19T06:25:16.598Z,97654.35
2017-11-19T06:26:19.286Z,97654.23
2017-11-19T06:27:21.935Z,97656.61
2017-11-19T06:28:24.619Z,97653.64
2017-11-19T06:29:27.575Z,97654.13
2017-11-19T06:30:30.270Z,97657.17
2017-11-19T06:31:32.873Z,97655.98
2017-11-19T06:32:35.565Z,97661.72
2017-11-19T06:33:38.199Z,97663.09
2017-11-19T06:34:40.876Z,97661.72
2017-11-19T06:35:43.799Z,97666.34
2017-11-19T06:36:46.467Z,97669.71
2017-11-19T06:37:49.344Z,97673.73
2017-11-19T06:38:52.003Z,97669.28
2017-11-19T06:39:54.894Z,97668.48
2017-11-19T06:40:57.736Z,97671.53
2017-11-19T06:42:00.641Z,97670.25
2017-11-19T06:43:05.014Z,97668.16
2017-11-19T06:44:07.782Z,97667.56
2017-11-19T06:45:10.954Z,97671.41
2017-11-19T06:46:13.569Z,97662.62
2017-11-19T06:47:16.139Z,97673.59
2017-11-19T06:48:19.444Z,97671.22
2017-11-19T06:49:22.050Z,97664.88
2017-11-19T06:50:24.733Z,97666.84
2017-11-19T06:51:27.297Z,97676.53
2017-11-19T06:52:30.037Z,97669.90
2017-11-19T06:53:32.711Z,97669.30
2017-11-19T06:54:35.753Z,97669.70
2017-11-19T06:55:38.441Z,97672.03
2017-11-19T06:56:41.187Z,97664.72
2017-11-19T06:57:43.823Z,97669.06
2017-11-19T06:58:46.489Z,97676.20
2017-11-19T06:59:49.157Z,97674.09
2017-11-19T07:00:52.142Z,97669.03
2017-11-19T07:01:55.601Z,97668.94
2017-11-19T07:02:58.199Z,97672.40
2017-11-19T07:04:00.845Z,97674.13
2017-11-19T07:05:03.490Z,97681.64
2017-11-19T07:06:06.065Z,97677.19
2017-11-19T07:07:09.128Z,97669.47
2017-11-19T07:08:11.721Z,97670.16
2017-11-19T07:09:14.404Z,97676.62
2017-11-19T07:10:16.969Z,97666.53
2017-11-19T07:11:19.521Z,97673.33
2017-11-19T07:12:22.123Z,97684.37
2017-11-19T07:13:25.082Z,97675.46
2017-11-19T07:14:27.627Z,97660.83
2017-11-19T07:15:30.198Z,97678.27
2017-11-19T07:16:32.827Z,97674.48
2017-11-19T07:17:35.456Z,97683.77
2017-11-19T07:18:38.070Z,97687.03
2017-11-19T07:19:41.160Z,97692.86
2017-11-19T07:20:43.738Z,97685.99
2017-11-19T07:21:46.221Z,97690.13
2017-11-19T07:22:48.708Z,97688.52
2017-11-19T07:23:51.283Z,97686.35
2017-11-19T07:24:53.900Z,97693.75
2017-11-19T07:25:56.992Z,97691.21
2017-11-19T07:26:59.658Z,97689.24
2017-11-19T07:28:02.505Z,97696.16
2017-11-19T07:29:05.336Z,97703.67
2017-11-19T07:30:08.061Z,97703.76
2017-11-19T07:31:10.833Z,97708.91
2017-11-19T07:32:13.992Z,97704.88
2017-11-19T07:33:16.675Z,97696.36
2017-11-19T07:34:19.391Z,97696.19
2017-11-19T07:35:22.012Z,97703.67
2017-11-19T07:36:24.790Z,97709.22
2017-11-19T07:37:27.464Z,97706.76
2017-11-19T07:38:30.485Z,97710.53
2017-11-19T07:39:33.112Z,97718.41
2017-11-19T07:40:35.836Z,97722.55
2017-11-19T07:41:38.511Z,97722.44
2017-11-19T07:42:41.155Z,97725.58
2017-11-19T07:43:43.780Z,97721.63
2017-11-19T07:44:46.857Z,97719.78
2017-11-19T07:45:49.521Z,97719.62
2017-11-19T07:46:52.170Z,97721.38
2017-11-19T07:47:54.839Z,97712.67
2017-11-19T07:48:57.492Z,97712.27
2017-11-19T07:50:00.148Z,97713.64
2017-11-19T07:51:03.278Z,97703.82
2017-11-19T07:52:05.901Z,97710.41
2017-11-19T07:53:08.616Z,97716.53
2017-11-19T07:54:11.247Z,97715.41
2017-11-19T07:55:13.893Z,97708.89
2017-11-19T07:56:16.539Z,97710.78
2017-11-19T07:57:20.732Z,97713.87
2017-11-19T07:58:23.401Z,97714.72
2017-11-19T07:59:26.034Z,97726.30
2017-11-19T08:00:28.722Z,97719.47
2017-11-19T08:01:31.333Z,97714.72
2017-11-19T08:02:34.006Z,97716.89
2017-11-19T08:03:37.121Z,97724.58
2017-11-19T08:04:39.736Z,97722.31
2017-11-19T08:05:42.375Z,97729.92
2017-11-19T08:06:45.078Z,97722.69
2017-11-19T08:07:47.789Z,97730.33
2017-11-19T08:08:50.517Z,97733.70
2017-11-19T08:09:53.504Z,97733.19
2017-11-19T08:10:57.364Z,97737.56
2017-11-19T08:12:00.036Z,97734.27
2017-11-19T08:13:02.793Z,97734.47
2017-11-19T08:14:05.532Z,97733.50
2017-11-19T08:15:08.288Z,97734.15
2017-11-19T08:16:11.407Z,97742.47
2017-11-19T08:17:14.764Z,97746.69
2017-11-19T08:18:17.479Z,97743.75
2017-11-19T08:19:20.189Z,97739.97
2017-11-19T08:20:22.867Z,97745.92
2017-11-19T08:21:25.566Z,97743.44
2017-11-19T08:22:28.628Z,97749.44
2017-11-19T08:23:31.270Z,97744.44
2017-11-19T08:24:33.920Z,97748.55
2017-11-19T08:25:36.650Z,97743.77
2017-11-19T08:26:39.335Z,97748.59
2017-11-19T08:27:41.977Z,97737.48
2017-11-19T08:28:44.985Z,97743.23
2017-11-19T08:29:47.678Z,97750.94
2017-11-19T08:30:50.278Z,97746.88
2017-11-19T08:31:52.845Z,97755.94
2017-11-19T08:32:55.484Z,97751.95
2017-11-19T08:33:58.154Z,97759.95
2017-11-19T08:35:01.257Z,97758.23
2017-11-19T08:36:03.904Z,97762.13
2017-11-19T08:37:06.544Z,97757.34
2017-11-19T08:38:09.194Z,97756.72
2017-11-19T08:39:11.840Z,97752.92
2017-11-19T08:40:14.491Z,97753.42
2017-11-19T08:41:17.700Z,97750.84
2017-11-19T08:42:20.370Z,97748.33
2017-11-19T08:43:23.079Z,97748.89
2017-11-19T08:44:25.757Z,97750.05
2017-11-19T08:45:28.418Z,97758.58
2017-11-19T08:46:31.027Z,97753.34
2017-11-19T08:47:34.033Z,97751.67
2017-11-19T08:48:36.731Z,97754.09
2017-11-19T08:49:39.313Z,97753.13
2017-11-19T08:50:41.910Z,97752.11
2017-11-19T08:51:44.531Z,97754.71
2017-11-19T08:52:47.120Z,97760.48
2017-11-19T08:53:49.987Z,97759.97
2017-11-19T08:54:52.692Z,97755.95
2017-11-19T08:55:55.335Z,97751.94
2017-11-19T08:56:57.993Z,97750.34
2017-11-19T08:58:00.601Z,97756.05
2017-11-19T08:59:03.200Z,97754.18
2017-11-19T09:00:06.121Z,97754.59
2017-11-19T09:01:08.870Z,97761.09
2017-11-19T09:02:11.564Z,97762.31
2017-11-19T09:03:14.318Z,97767.58
2017-11-19T09:04:17.031Z,97770.08
2017-11-19T09:05:19.748Z,97773.86
2017-11-19T09:06:22.687Z,97765.66
2017-11-19T09:07:25.404Z,97769.50
2017-11-19T09:08:28.088Z,97768.52
2017-11-19T09:09:30.746Z,97758.06
2017-11-19T09:10:33.473Z,97773.35
2017-11-19T09:11:36.420Z,97768.69
2017-11-19T09:12:39.108Z,97776.33
2017-11-19T09:13:41.813Z,97773.95
2017-11-19T09:14:45.335Z,97773.05
2017-11-19T09:15:48.101Z,97777.22
2017-11-19T09:16:50.786Z,97776.52
2017-11-19T09:17:53.716Z,97772.17
2017-11-19T09:18:56.363Z,97769.43
2017-11-19T09:19:59.036Z,97769.64
2017-11-19T09:21:01.752Z,97754.95
2017-11-19T09:22:04.436Z,97769.80
2017-11-19T09:23:07.114Z,97774.24
2017-11-19T09:24:10.024Z,97780.00
2017-11-19T09:25:12.595Z,97790.92
2017-11-19T09:26:15.211Z,97783.59
2017-11-19T09:27:17.773Z,97774.44
2017-11-19T09:28:20.417Z,97793.57
2017-11-19T09:29:23.098Z,97786.92
2017-11-19T09:30:26.138Z,97796.08
2017-11-19T09:31:28.807Z,97782.24
2017-11-19T09:32:31.502Z,97785.31
2017-11-19T09:33:34.582Z,97788.42
2017-11-19T09:34:37.292Z,97782.89
2017-11-19T09:35:40.108Z,97778.50
2017-11-19T09:36:43.106Z,97781.30
2017-11-19T09:37:45.905Z,97784.69
2017-11-19T09:38:48.616Z,97798.82
2017-11-19T09:39:51.203Z,97808.58
2017-11-19T09:40:53.855Z,97803.59
2017-11-19T09:41:56.454Z,97809.00
2017-11-19T09:42:59.352Z,97793.52
2017-11-19T09:44:01.996Z,97794.27
2017-11-19T09:45:04.593Z,97799.41
2017-11-19T09:46:07.299Z,97797.81
2017-11-19T09:47:09.968Z,97802.45
2017-11-19T09:48:12.669Z,97801.34
2017-11-19T09:49:15.684Z,97794.50
2017-11-19T09:50:18.364Z,97804.63
2017-11-19T09:51:21.036Z,97804.13
2017-11-19T09:52:23.736Z,97800.33
2017-11-19T09:53:26.458Z,97812.13
2017-11-19T09:54:29.059Z,97807.58
2017-11-19T09:55:31.918Z,97806.44
2017-11-19T09:56:34.457Z,97800.66
2017-11-19T09:57:37.001Z,97798.08
2017-11-19T09:58:39.559Z,97798.02
2017-11-19T09:59:42.193Z,97810.59
2017-11-19T10:00:44.835Z,97809.28
2017-11-19T10:01:47.771Z,97789.28
2017-11-19T10:02:50.416Z,97806.78
2017-11-19T10:03:53.089Z,97809.55
2017-11-19T10:04:55.751Z,97817.76
2017-11-19T10:05:58.451Z,97815.36
2017-11-19T10:07:01.153Z,97808.16
2017-11-19T10:08:04.132Z,97814.48
2017-11-19T10:09:06.816Z,97815.66
2017-11-19T10:10:09.476Z,97816.34
2017-11-19T10:11:12.127Z,97815.08
2017-11-19T10:12:14.855Z,97814.42
2017-11-19T10:13:17.535Z,97809.32
2017-11-19T10:14:20.478Z,97799.58
2017-11-19T10:15:23.129Z,97811.06
2017-11-19T10:16:25.770Z,97804.06
2017-11-19T10:17:28.436Z,97804.21
2017-11-19T10:18:31.116Z,97800.53
2017-11-19T10:19:33.832Z,97799.59
2017-11-19T10:20:37.110Z,97803.63
2017-11-19T10:21:39.789Z,97798.48
2017-11-19T10:22:42.585Z,97824.06
2017-11-19T10:23:45.256Z,97819.19
2017-11-19T10:24:47.920Z,97809.43
2017-11-19T10:25:50.608Z,97806.69
2017-11-19T10:26:53.564Z,97817.56
2017-11-19T10:27:56.871Z,97817.50
2017-11-19T10:28:59.522Z,97823.54
2017-11-19T10:30:02.197Z,97821.45
2017-11-19T10:31:04.896Z,97824.77
2017-11-19T10:32:07.572Z,97821.02
2017-11-19T10:33:10.537Z,97829.99
2017-11-19T10:34:13.188Z,97814.59
2017-11-19T10:35:15.872Z,97814.43
2017-11-19T10:36:18.636Z,97806.09
2017-11-19T10:37:21.285Z,97814.17
2017-11-19T10:38:23.997Z,97802.11
2017-11-19T10:39:27.432Z,97821.23
2017-11-19T10:40:30.081Z,97816.36
2017-11-19T10:41:32.723Z,97813.36
2017-11-19T10:42:35.365Z,97810.68
2017-11-19T10:43:38.017Z,97807.51
2017-11-19T10:44:40.706Z,97817.28
2017-11-19T10:45:43.431Z,97813.14
2017-11-19T10:46:46.090Z,97817.01
2017-11-19T10:47:48.861Z,97822.59
2017-11-19T10:48:51.867Z,97812.81
2017-11-19T10:49:54.626Z,97809.90
2017-11-19T10:50:57.324Z,97804.55
2017-11-19T10:52:00.498Z,97811.46
2017-11-19T10:53:03.223Z,97809.84
2017-11-19T10:54:05.970Z,97803.98
2017-11-19T10:55:08.648Z,97807.39
2017-11-19T10:56:11.359Z,97818.86
2017-11-19T10:57:14.051Z,97807.05
2017-11-19T10:58:17.010Z,97809.30
2017-11-19T11:15:20.139Z,97809.05
2017-11-19T11:16:22.834Z,97806.36
2017-11-19T11:17:25.779Z,97817.20
2017-11-19T11:18:28.631Z,97810.53
2017-11-19T11:19:31.536Z,97811.94
2017-11-19T11:20:34.537Z,97805.35
2017-11-19T11:21:37.243Z,97813.61
2017-11-19T11:22:39.895Z,97817.24
2017-11-19T11:23:42.581Z,97819.27
2017-11-19T11:24:45.225Z,97813.48
2017-11-19T11:25:47.925Z,97807.04
2017-11-19T11:26:50.891Z,97798.09
2017-11-19T11:27:53.491Z,97811.36
2017-11-19T11:28:56.130Z,97807.59
2017-11-19T11:29:58.806Z,97803.38
2017-11-19T11:31:01.433Z,97807.17
2017-11-19T11:32:04.105Z,97795.73
2017-11-19T11:33:07.039Z,97808.88
2017-11-19T11:34:09.769Z,97812.09
2017-11-19T11:35:12.555Z,97807.18
2017-11-19T11:36:15.254Z,97796.30
2017-11-19T11:37:17.948Z,97797.38
2017-11-19T11:38:20.652Z,97784.86
2017-11-19T11:39:23.532Z,97803.34
2017-11-19T11:40:26.227Z,97814.13
2017-11-19T11:41:28.860Z,97806.45
2017-11-19T11:42:31.502Z,97808.48
2017-11-19T11:43:34.198Z,97803.95
2017-11-19T11:44:37.080Z,97799.13
2017-11-19T11:45:39.876Z,97805.13
2017-11-19T11:46:42.511Z,97814.45
2017-11-19T11:47:46.167Z,97817.62
2017-11-19T11:48:48.831Z,97798.23
2017-11-19T11:49:51.600Z,97799.09
2017-11-19T11:50:54.516Z,97807.55
2017-11-19T11:51:57.221Z,97803.65
2017-11-19T11:52:59.994Z,97794.09
2017-11-19T11:54:02.731Z,97808.02
2017-11-19T11:55:05.433Z,97814.20
2017-11-19T11:56:08.071Z,97809.37
2017-11-19T11:57:11.032Z,97809.86
2017-11-19T11:58:13.750Z,97806.63
2017-11-19T11:59:16.458Z,97805.86
2017-11-19T12:00:19.049Z,97800.48
2017-11-19T12:01:21.737Z,97794.78
2017-11-19T12:02:24.480Z,97796.84
2017-11-19T12:03:27.474Z,97801.25
2017-11-19T12:04:30.163Z,97797.22
2017-11-19T12:05:32.916Z,97791.10
2017-11-19T12:06:35.605Z,97788.92
2017-11-19T12:07:38.325Z,97800.97
2017-11-19T12:08:40.951Z,97802.69
2017-11-19T12:09:43.911Z,97810.32
2017-11-19T12:10:46.719Z,97799.83
2017-11-19T12:11:49.532Z,97796.33
2017-11-19T12:12:52.182Z,97786.89
2017-11-19T12:13:55.066Z,97805.05
2017-11-19T12:14:57.849Z,97782.16
2017-11-19T12:16:00.874Z,97804.17
2017-11-19T12:17:03.632Z,97808.23
2017-11-19T12:18:06.460Z,97792.80
2017-11-19T12:19:09.268Z,97817.62
2017-11-19T12:20:12.050Z,97808.38
2017-11-19T12:21:14.791Z,97802.34
2017-11-19T12:22:17.840Z,97801.82
2017-11-19T12:23:20.591Z,97799.91
2017-11-19T12:24:23.354Z,97799.17
2017-11-19T12:25:26.107Z,97806.03
2017-11-19T12:26:28.817Z,97804.80
2017-11-19T12:27:31.492Z,97814.42
2017-11-19T12:28:34.487Z,97786.86
2017-11-19T12:29:37.267Z,97812.86
2017-11-19T12:30:39.954Z,97811.91
2017-11-19T12:31:42.719Z,97816.52
2017-11-19T12:32:45.391Z,97815.36
2017-11-19T12:33:49.160Z,97802.60
2017-11-19T12:34:52.337Z,97806.87
2017-11-19T12:35:55.059Z,97798.66
2017-11-19T12:36:57.619Z,97800.69
2017-11-19T12:38:00.284Z,97813.95
2017-11-19T12:39:03.003Z,97811.42
2017-11-19T12:40:05.708Z,97812.25
2017-11-19T12:41:08.692Z,97801.73
2017-11-19T12:42:11.393Z,97814.22
2017-11-19T12:43:14.100Z,97814.56
2017-11-19T12:44:16.823Z,97812.19
2017-11-19T12:45:19.550Z,97816.06
2017-11-19T12:46:22.227Z,97807.28
2017-11-19T12:47:25.240Z,97820.80